Time;durP1;ratioP1;P1;durP2;ratioP2;P2;SDS_P1;SDS_P2;PMS_P1;PMS_P2;Temp;Humidity;BMP_temperature;BMP_pressure;BME280_temperature;BME280_humidity;BME280_pressure;Samples;Min_cycle;Max_cycle;Signal;HPM_P1;HPM_P2
2021/08/07 00:01:33;;;;;;;4.80;1.80;;;16.70;1.00;;;;;;5006619;28;20749;-72
2021/08/07 00:04:00;;;;;;;6.83;3.23;;;16.70;1.00;;;;;;5003346;28;20186;-72
2021/08/07 00:06:25;;;;;;;3.80;1.90;;;16.70;1.00;;;;;;4999796;28;21133;-71
2021/08/07 00:08:51;;;;;;;1.80;1.50;;;16.70;1.00;;;;;;5000899;28;20601;-71
2021/08/07 00:11:17;;;;;;;3.07;2.00;;;16.70;1.00;;;;;;4999294;28;20467;-71
2021/08/07 00:13:44;;;;;;;2.03;1.70;;;16.60;1.00;;;;;;5004498;28;20450;-71
2021/08/07 00:16:10;;;;;;;2.50;1.87;;;16.60;1.00;;;;;;5002805;28;20500;-72
2021/08/07 00:18:36;;;;;;;5.33;1.80;;;16.60;1.00;;;;;;5005788;28;20190;-72
2021/08/07 00:21:02;;;;;;;3.47;1.50;;;16.70;1.00;;;;;;5008332;28;20439;-71
2021/08/07 00:23:28;;;;;;;4.77;1.70;;;16.50;1.00;;;;;;5005646;28;20192;-71
2021/08/07 00:25:54;;;;;;;5.07;1.60;;;16.50;1.00;;;;;;5006018;28;20188;-71
2021/08/07 00:28:19;;;;;;;2.90;1.70;;;16.50;1.00;;;;;;5008494;28;20454;-71
2021/08/07 00:30:45;;;;;;;3.40;1.60;;;16.60;1.00;;;;;;5003729;28;20215;-72
2021/08/07 00:33:11;;;;;;;3.90;1.47;;;16.50;1.00;;;;;;5007506;28;20214;-71
2021/08/07 00:35:37;;;;;;;2.13;1.33;;;16.50;1.00;;;;;;5008575;28;20180;-71
2021/08/07 00:38:03;;;;;;;2.23;1.47;;;16.40;1.00;;;;;;5006951;28;21456;-71
2021/08/07 00:40:28;;;;;;;3.53;1.60;;;16.50;1.00;;;;;;5005105;28;20188;-71
2021/08/07 00:42:57;;;;;;;2.53;2.03;;;16.50;1.00;;;;;;5001043;28;20188;-71
2021/08/07 00:45:37;;;;;;;2.03;1.57;;;16.50;1.00;;;;;;5000335;28;20825;-71
2021/08/07 00:48:05;;;;;;;5.00;1.47;;;16.40;1.00;;;;;;5002426;28;20443;-71
2021/08/07 00:50:40;;;;;;;2.67;1.40;;;16.50;1.00;;;;;;5015903;28;20467;-71
2021/08/07 00:53:07;;;;;;;2.10;1.77;;;16.50;1.00;;;;;;5004207;28;20799;-71
2021/08/07 00:55:33;;;;;;;1.73;1.50;;;16.50;1.00;;;;;;5002291;28;20524;-71
2021/08/07 00:57:59;;;;;;;7.70;2.07;;;16.40;1.00;;;;;;5019530;28;20447;-71
2021/08/07 01:00:26;;;;;;;3.90;1.60;;;16.50;1.00;;;;;;5005376;28;20184;-71
2021/08/07 01:03:15;;;;;;;2.80;1.67;;;16.50;1.00;;;;;;5007419;28;20512;-71
2021/08/07 01:06:11;;;;;;;3.20;1.37;;;16.50;1.00;;;;;;5014821;28;20442;-71
2021/08/07 01:08:44;;;;;;;4.20;1.97;;;16.60;1.00;;;;;;5008313;28;20458;-71
2021/08/07 01:11:39;;;;;;;3.80;1.80;;;16.50;1.00;;;;;;5022644;28;20479;-71
2021/08/07 01:14:10;;;;;;;3.90;1.80;;;16.50;1.00;;;;;;5007669;28;20451;-71
2021/08/07 01:16:43;;;;;;;3.60;1.40;;;16.50;1.00;;;;;;5005055;28;20528;-71
2021/08/07 01:19:16;;;;;;;6.53;1.40;;;16.40;1.00;;;;;;5008930;28;20500;-71
2021/08/07 01:21:50;;;;;;;3.17;1.90;;;16.40;1.00;;;;;;5006694;28;20458;-71
2021/08/07 01:24:28;;;;;;;2.53;1.40;;;16.40;1.00;;;;;;5007134;28;20450;-71
2021/08/07 01:27:24;;;;;;;2.43;1.70;;;16.50;1.00;;;;;;5010185;28;20839;-71
2021/08/07 01:29:55;;;;;;;4.70;1.77;;;16.40;1.00;;;;;;5023432;28;21030;-71
2021/08/07 01:32:28;;;;;;;4.60;1.60;;;16.40;1.00;;;;;;5019736;28;20464;-71
2021/08/07 01:34:55;;;;;;;2.50;1.57;;;16.40;1.00;;;;;;5005059;28;20442;-71
2021/08/07 01:37:24;;;;;;;4.50;2.07;;;16.30;1.00;;;;;;5003664;28;20549;-71
2021/08/07 01:40:01;;;;;;;3.40;1.80;;;16.20;1.00;;;;;;5024992;28;20552;-71
2021/08/07 01:42:38;;;;;;;4.53;2.10;;;16.20;1.00;;;;;;5008421;28;20692;-72
2021/08/07 01:45:11;;;;;;;4.10;2.00;;;16.10;1.00;;;;;;5004380;28;20450;-72
2021/08/07 01:47:45;;;;;;;3.53;1.67;;;16.10;1.00;;;;;;4999052;28;20454;-72
2021/08/07 01:50:27;;;;;;;4.00;1.90;;;16.10;1.00;;;;;;5005726;28;20464;-72
2021/08/07 01:52:59;;;;;;;3.30;1.77;;;16.10;1.00;;;;;;5002672;28;20490;-72
2021/08/07 01:55:43;;;;;;;3.53;1.80;;;16.10;1.00;;;;;;5006100;28;20839;-71
2021/08/07 01:58:24;;;;;;;2.70;1.67;;;16.00;1.00;;;;;;5008097;28;20457;-71
2021/08/07 02:00:52;;;;;;;4.50;1.70;;;16.00;1.00;;;;;;5024826;28;21059;-71
2021/08/07 02:03:31;;;;;;;3.20;2.00;;;16.00;1.00;;;;;;5003918;28;20877;-72
2021/08/07 02:05:57;;;;;;;2.17;1.50;;;16.00;1.00;;;;;;5007683;28;20443;-72
2021/08/07 02:08:23;;;;;;;2.30;1.63;;;16.00;1.00;;;;;;5005388;28;21688;-71
2021/08/07 02:10:56;;;;;;;4.50;1.93;;;16.00;1.00;;;;;;5006533;28;20484;-72
2021/08/07 02:13:22;;;;;;;3.73;1.83;;;16.00;1.00;;;;;;5002589;28;20537;-71
2021/08/07 02:15:54;;;;;;;3.20;1.73;;;15.90;1.00;;;;;;5005903;28;20447;-72
2021/08/07 02:18:27;;;;;;;2.80;1.80;;;15.90;1.00;;;;;;5025749;28;20802;-71
2021/08/07 02:20:55;;;;;;;4.80;1.87;;;15.90;1.00;;;;;;5001175;28;20446;-72
2021/08/07 02:23:26;;;;;;;3.37;1.97;;;15.90;1.00;;;;;;5008485;28;20500;-71
2021/08/07 02:25:58;;;;;;;2.97;1.67;;;15.80;1.00;;;;;;5004776;28;20458;-71
2021/08/07 02:28:34;;;;;;;2.13;1.53;;;15.80;1.00;;;;;;5006330;28;21020;-72
2021/08/07 02:31:05;;;;;;;5.33;2.43;;;15.90;1.00;;;;;;5009075;28;21010;-71
2021/08/07 02:33:38;;;;;;;3.60;2.00;;;15.90;1.00;;;;;;5003914;28;20796;-72
2021/08/07 02:36:05;;;;;;;3.93;1.90;;;15.80;1.00;;;;;;5001915;28;20473;-72
2021/08/07 02:38:33;;;;;;;2.10;1.70;;;15.80;1.00;;;;;;5005175;28;20929;-72
2021/08/07 02:41:00;;;;;;;3.07;1.87;;;15.80;1.00;;;;;;5012289;28;21307;-72
2021/08/07 02:43:31;;;;;;;2.77;2.10;;;15.80;1.00;;;;;;5003786;28;20450;-72
2021/08/07 02:45:59;;;;;;;2.70;1.87;;;15.70;1.00;;;;;;5003749;28;20446;-72
2021/08/07 02:48:28;;;;;;;2.17;1.93;;;15.60;1.00;;;;;;4999352;28;20537;-72
2021/08/07 02:50:58;;;;;;;3.93;1.80;;;15.70;1.00;;;;;;5008019;28;20477;-71
2021/08/07 02:53:24;;;;;;;1.83;1.57;;;15.70;1.00;;;;;;5001662;28;20481;-71
2021/08/07 02:55:51;;;;;;;7.20;1.80;;;15.70;1.00;;;;;;5003667;28;20451;-72
2021/08/07 02:58:24;;;;;;;2.63;2.33;;;15.60;1.00;;;;;;5002645;28;21023;-71
2021/08/07 03:00:51;;;;;;;3.37;1.60;;;15.60;1.00;;;;;;4987069;28;20442;-72
2021/08/07 03:03:18;;;;;;;2.90;2.23;;;15.60;1.00;;;;;;5008750;28;20644;-72
2021/08/07 03:05:44;;;;;;;2.40;1.87;;;15.60;1.00;;;;;;5000774;28;21115;-72
2021/08/07 03:08:12;;;;;;;4.00;2.03;;;15.60;1.00;;;;;;5002894;28;20462;-71
2021/08/07 03:10:40;;;;;;;3.30;2.10;;;15.60;1.00;;;;;;5006171;28;20477;-72
2021/08/07 03:13:09;;;;;;;1.83;1.70;;;15.70;1.00;;;;;;5006237;28;20476;-72
2021/08/07 03:15:35;;;;;;;4.40;1.77;;;15.70;1.00;;;;;;5010483;28;22152;-72
2021/08/07 03:18:01;;;;;;;3.23;1.90;;;15.70;1.00;;;;;;5006328;28;20433;-71
2021/08/07 03:20:31;;;;;;;4.20;1.57;;;15.70;1.00;;;;;;5005156;28;20470;-71
2021/08/07 03:23:01;;;;;;;4.33;2.40;;;15.70;1.00;;;;;;5022003;28;20474;-71
2021/08/07 03:25:28;;;;;;;5.27;2.10;;;15.70;1.00;;;;;;5006630;28;20442;-71
2021/08/07 03:27:55;;;;;;;2.50;1.77;;;15.70;1.00;;;;;;5005800;28;20450;-72
2021/08/07 03:30:22;;;;;;;1.77;1.57;;;15.60;1.00;;;;;;5006357;28;21043;-72
2021/08/07 03:32:48;;;;;;;4.43;2.07;;;15.50;1.00;;;;;;5021974;28;20462;-72
2021/08/07 03:35:14;;;;;;;2.40;1.83;;;15.60;1.00;;;;;;5005821;28;20778;-72
2021/08/07 03:37:43;;;;;;;6.37;1.93;;;15.60;1.00;;;;;;5007451;28;20891;-71
2021/08/07 03:40:10;;;;;;;3.97;2.33;;;15.50;1.00;;;;;;5005960;28;20437;-71
2021/08/07 03:42:42;;;;;;;4.80;1.70;;;15.50;1.00;;;;;;5001944;28;20194;-71
2021/08/07 03:45:12;;;;;;;3.57;1.93;;;15.50;1.00;;;;;;5004653;28;20449;-71
2021/08/07 03:47:51;;;;;;;2.90;1.70;;;15.50;1.00;;;;;;5005653;28;21078;-71
2021/08/07 03:50:21;;;;;;;2.17;1.83;;;15.50;1.00;;;;;;5004469;28;20460;-72
2021/08/07 03:52:47;;;;;;;4.33;2.00;;;15.40;1.00;;;;;;5020899;28;20465;-72
2021/08/07 03:55:15;;;;;;;2.53;2.23;;;15.30;1.00;;;;;;5005174;28;21373;-72
2021/08/07 03:57:58;;;;;;;5.23;2.17;;;15.40;1.00;;;;;;5003268;28;20442;-72
2021/08/07 04:00:43;;;;;;;2.53;1.87;;;15.40;1.00;;;;;;5000434;28;20998;-71
2021/08/07 04:03:17;;;;;;;3.67;2.03;;;15.30;1.00;;;;;;5001875;28;20454;-72
2021/08/07 04:05:43;;;;;;;1.67;1.57;;;15.30;1.00;;;;;;5017765;28;20822;-72
2021/08/07 04:08:09;;;;;;;3.97;2.10;;;15.30;1.00;;;;;;5001696;28;21599;-71
2021/08/07 04:10:38;;;;;;;4.63;2.20;;;15.30;1.00;;;;;;5000840;28;20486;-72
2021/08/07 04:13:05;;;;;;;9.70;2.30;;;15.20;1.00;;;;;;4998529;28;20448;-71
2021/08/07 04:15:31;;;;;;;4.20;2.10;;;15.20;1.00;;;;;;5022658;28;20503;-72
2021/08/07 04:17:57;;;;;;;3.43;2.10;;;15.20;1.00;;;;;;5004503;28;20861;-72
2021/08/07 04:20:23;;;;;;;3.70;2.30;;;15.30;1.00;;;;;;5004178;28;20496;-71
2021/08/07 04:22:49;;;;;;;4.13;2.03;;;15.30;1.00;;;;;;5003773;28;20485;-72
2021/08/07 04:25:16;;;;;;;2.63;1.77;;;15.30;1.00;;;;;;5004632;28;20866;-71
2021/08/07 04:27:43;;;;;;;6.50;2.10;;;15.40;1.00;;;;;;5015717;28;20446;-71
2021/08/07 04:30:10;;;;;;;6.67;2.00;;;15.40;1.00;;;;;;5003306;28;20522;-72
2021/08/07 04:32:38;;;;;;;3.07;1.77;;;15.40;1.00;;;;;;5003751;28;20448;-71
2021/08/07 04:35:08;;;;;;;4.80;1.77;;;15.50;1.00;;;;;;5010467;28;20449;-72
2021/08/07 04:37:51;;;;;;;2.10;1.90;;;15.50;1.00;;;;;;5008526;28;20458;-72
2021/08/07 04:40:24;;;;;;;4.30;1.93;;;15.50;1.00;;;;;;5012124;28;20446;-71
2021/08/07 04:42:50;;;;;;;3.10;2.50;;;15.50;1.00;;;;;;5009224;28;20507;-72
2021/08/07 04:45:16;;;;;;;2.70;1.60;;;15.60;1.00;;;;;;5013177;28;20556;-72
2021/08/07 04:48:07;;;;;;;2.90;2.00;;;15.60;1.00;;;;;;5009060;28;20940;-71
2021/08/07 04:50:41;;;;;;;2.93;1.60;;;15.60;1.00;;;;;;5011467;28;20860;-71
2021/08/07 04:53:07;;;;;;;2.90;1.53;;;15.70;1.00;;;;;;5005724;28;20560;-71
2021/08/07 04:55:36;;;;;;;3.60;2.20;;;15.70;1.00;;;;;;5024386;28;20554;-71
2021/08/07 04:58:04;;;;;;;2.13;1.40;;;15.80;1.00;;;;;;5003396;28;20443;-71
2021/08/07 05:00:32;;;;;;;7.90;2.10;;;15.70;1.00;;;;;;5007660;28;20449;-71
2021/08/07 05:03:01;;;;;;;2.07;1.57;;;15.80;1.00;;;;;;5007303;28;20697;-72
2021/08/07 05:05:29;;;;;;;2.23;1.63;;;15.70;1.00;;;;;;5005868;28;20445;-71
2021/08/07 05:07:55;;;;;;;4.07;1.60;;;15.80;1.00;;;;;;5004717;28;20961;-71
2021/08/07 05:10:23;;;;;;;4.90;1.60;;;15.80;1.00;;;;;;5004759;28;20222;-71
2021/08/07 05:12:48;;;;;;;3.00;1.53;;;15.80;1.00;;;;;;5007279;28;22787;-72
2021/08/07 05:15:14;;;;;;;2.70;1.77;;;15.80;1.00;;;;;;5023649;28;20321;-71
2021/08/07 05:17:40;;;;;;;1.70;1.20;;;15.90;1.00;;;;;;5027281;28;20172;-72
2021/08/07 05:20:09;;;;;;;3.00;1.50;;;15.90;1.00;;;;;;5005150;28;20446;-72
2021/08/07 05:22:35;;;;;;;4.93;1.60;;;16.00;1.00;;;;;;5019790;28;21539;-71
2021/08/07 05:25:01;;;;;;;2.90;1.70;;;16.00;1.00;;;;;;5024400;28;20450;-72
2021/08/07 05:27:26;;;;;;;1.63;1.30;;;16.00;1.00;;;;;;5039851;28;20186;-72
2021/08/07 05:29:52;;;;;;;1.83;1.50;;;16.00;1.00;;;;;;5022962;28;20298;-72
2021/08/07 05:32:18;;;;;;;2.40;1.50;;;16.00;1.00;;;;;;5021518;28;20791;-71
2021/08/07 05:34:44;;;;;;;3.20;1.47;;;16.00;1.00;;;;;;5010375;28;20552;-72
2021/08/07 05:37:11;;;;;;;5.17;1.67;;;16.10;1.00;;;;;;5017886;28;20442;-72
2021/08/07 05:39:38;;;;;;;5.27;1.93;;;16.10;1.00;;;;;;5014165;28;20450;-71
2021/08/07 05:42:04;;;;;;;2.57;1.50;;;16.10;1.00;;;;;;5021651;28;20484;-71
2021/08/07 05:44:30;;;;;;;3.23;1.83;;;16.10;1.00;;;;;;5010368;28;20183;-72
2021/08/07 05:46:56;;;;;;;3.60;1.60;;;16.10;1.00;;;;;;5013498;28;20250;-71
2021/08/07 05:49:22;;;;;;;3.63;1.40;;;16.20;1.00;;;;;;5007721;28;21324;-71
2021/08/07 05:51:48;;;;;;;1.93;1.23;;;16.20;1.00;;;;;;5010795;28;20449;-71
2021/08/07 05:54:16;;;;;;;3.63;1.50;;;16.20;1.00;;;;;;5010536;28;20979;-72
2021/08/07 05:56:42;;;;;;;4.37;1.10;;;16.20;1.00;;;;;;5013691;28;20518;-72
2021/08/07 05:59:08;;;;;;;5.53;1.70;;;16.30;1.00;;;;;;5019255;28;20430;-72
2021/08/07 06:01:34;;;;;;;4.57;1.80;;;16.30;1.00;;;;;;5026331;28;20590;-72
2021/08/07 06:04:00;;;;;;;3.73;1.70;;;16.30;1.00;;;;;;5017289;28;20176;-72
2021/08/07 06:06:26;;;;;;;5.73;1.70;;;16.30;1.00;;;;;;5031743;28;20184;-71
2021/08/07 06:08:52;;;;;;;3.83;1.30;;;16.30;1.00;;;;;;5011939;28;20824;-71
2021/08/07 06:11:18;;;;;;;2.50;1.60;;;16.40;1.00;;;;;;5017823;28;20625;-72
2021/08/07 06:13:44;;;;;;;1.50;1.10;;;16.40;1.00;;;;;;5014644;28;20814;-71
2021/08/07 06:16:11;;;;;;;4.87;1.50;;;16.60;1.00;;;;;;5013327;28;20462;-72
2021/08/07 06:18:37;;;;;;;3.40;1.23;;;16.70;1.00;;;;;;5018314;28;20443;-71
2021/08/07 06:21:03;;;;;;;3.50;1.43;;;16.80;1.00;;;;;;5012083;28;20640;-71
2021/08/07 06:23:29;;;;;;;1.77;1.30;;;17.00;1.00;;;;;;5016765;28;20247;-72
2021/08/07 06:25:55;;;;;;;6.40;1.63;;;17.20;1.00;;;;;;5031650;28;20188;-71
2021/08/07 06:28:22;;;;;;;1.90;1.10;;;17.30;1.00;;;;;;5030153;28;21000;-72
2021/08/07 06:30:49;;;;;;;4.30;1.50;;;17.30;1.00;;;;;;5008719;28;20212;-72
2021/08/07 06:33:21;;;;;;;3.10;1.30;;;17.20;1.00;;;;;;5013377;28;20439;-71
2021/08/07 06:35:47;;;;;;;3.00;1.13;;;17.20;1.00;;;;;;5016112;28;20464;-71
2021/08/07 06:38:13;;;;;;;2.67;1.70;;;17.10;1.00;;;;;;5020448;28;20250;-71
2021/08/07 06:40:38;;;;;;;3.80;1.87;;;17.10;1.00;;;;;;5036088;28;20202;-72
2021/08/07 06:43:09;;;;;;;4.10;1.60;;;17.10;1.00;;;;;;5029964;28;20717;-72
2021/08/07 06:45:39;;;;;;;2.73;1.50;;;17.10;1.00;;;;;;5015766;28;20450;-71
2021/08/07 06:48:09;;;;;;;2.83;1.33;;;17.10;1.00;;;;;;5018939;28;20749;-72
2021/08/07 06:50:36;;;;;;;3.13;1.43;;;17.10;1.00;;;;;;5017234;28;20983;-72
2021/08/07 06:53:03;;;;;;;3.10;1.50;;;17.20;1.00;;;;;;5018852;28;20546;-72
2021/08/07 06:55:29;;;;;;;2.50;1.33;;;17.20;1.00;;;;;;5039667;28;20471;-72
2021/08/07 06:57:55;;;;;;;2.00;1.20;;;17.30;1.00;;;;;;5012651;28;20865;-71
2021/08/07 07:00:22;;;;;;;2.70;1.10;;;17.30;1.00;;;;;;5028093;28;20937;-72
2021/08/07 07:02:48;;;;;;;2.47;1.30;;;17.40;1.00;;;;;;4996477;28;20484;-71
2021/08/07 07:05:14;;;;;;;5.07;1.70;;;17.40;1.00;;;;;;5018514;28;20975;-72
2021/08/07 07:07:42;;;;;;;4.73;1.60;;;17.40;1.00;;;;;;5015235;28;20585;-72
2021/08/07 07:10:10;;;;;;;3.00;1.43;;;17.40;1.00;;;;;;5018686;28;20478;-72
2021/08/07 07:12:37;;;;;;;4.80;1.67;;;17.40;1.00;;;;;;5013205;28;20469;-71
2021/08/07 07:15:03;;;;;;;3.53;1.40;;;17.40;1.00;;;;;;5010490;28;20870;-71
2021/08/07 07:17:29;;;;;;;2.70;1.57;;;17.50;1.00;;;;;;5014059;28;20617;-71
2021/08/07 07:19:57;;;;;;;3.20;1.40;;;17.40;1.00;;;;;;5010610;28;20442;-72
2021/08/07 07:22:24;;;;;;;5.60;2.00;;;17.40;1.00;;;;;;5015146;28;20542;-71
2021/08/07 07:24:50;;;;;;;3.50;1.60;;;17.40;1.00;;;;;;5009666;28;20830;-72
2021/08/07 07:27:16;;;;;;;4.60;1.63;;;17.40;1.00;;;;;;5013561;28;20442;-72
2021/08/07 07:29:42;;;;;;;2.67;1.80;;;17.30;1.00;;;;;;5018338;28;20501;-72
2021/08/07 07:32:09;;;;;;;3.33;2.07;;;17.20;1.00;;;;;;5014477;28;20199;-72
2021/08/07 07:34:38;;;;;;;5.90;1.97;;;16.90;1.00;;;;;;5018279;28;20438;-71
2021/08/07 07:37:06;;;;;;;4.03;2.40;;;16.90;13.40;;;;;;5016070;28;20441;-71
2021/08/07 07:39:33;;;;;;;2.03;1.80;;;16.70;12.50;;;;;;5015236;28;20880;-72
2021/08/07 07:41:59;;;;;;;7.13;2.20;;;16.70;99.30;;;;;;5016422;28;20439;-72
2021/08/07 07:44:25;;;;;;;4.50;2.10;;;16.70;99.90;;;;;;5024174;28;20490;-71
2021/08/07 07:46:51;;;;;;;2.90;1.63;;;16.70;99.90;;;;;;5020219;28;20217;-71
2021/08/07 07:49:17;;;;;;;7.90;2.70;;;16.80;99.90;;;;;;5015297;28;20486;-72
2021/08/07 07:51:43;;;;;;;6.00;2.67;;;16.70;78.10;;;;;;5018374;28;20553;-73
2021/08/07 07:54:09;;;;;;;9.53;2.40;;;16.90;99.90;;;;;;5006920;28;20478;-73
2021/08/07 07:56:36;;;;;;;4.63;1.83;;;16.90;77.50;;;;;;5011123;28;20638;-72
2021/08/07 07:59:02;;;;;;;4.90;1.90;;;17.10;24.00;;;;;;5001962;28;20461;-72
2021/08/07 08:01:27;;;;;;;3.90;2.13;;;17.30;27.20;;;;;;5005435;28;20861;-72
2021/08/07 08:03:53;;;;;;;3.50;2.50;;;17.40;30.60;;;;;;5004355;28;20245;-73
2021/08/07 08:06:18;;;;;;;4.87;2.40;;;17.50;33.10;;;;;;5007525;28;20576;-73
2021/08/07 08:08:45;;;;;;;4.90;2.50;;;17.50;1.00;;;;;;5007782;28;20211;-72
2021/08/07 08:11:11;;;;;;;4.93;2.23;;;17.40;1.00;;;;;;5004398;28;20472;-73
2021/08/07 08:13:38;;;;;;;4.30;2.00;;;17.50;1.00;;;;;;5022703;28;20454;-73
2021/08/07 08:16:05;;;;;;;4.63;2.50;;;17.60;1.00;;;;;;5007200;28;20831;-73
2021/08/07 08:18:31;;;;;;;2.93;1.57;;;17.80;1.00;;;;;;5005710;28;20448;-73
2021/08/07 08:20:57;;;;;;;3.03;2.27;;;17.90;1.00;;;;;;5004500;28;21862;-72
2021/08/07 08:23:24;;;;;;;4.63;2.50;;;18.10;1.00;;;;;;4997891;28;20458;-73
2021/08/07 08:25:51;;;;;;;3.13;1.80;;;18.30;1.00;;;;;;4999272;28;20791;-73
2021/08/07 08:28:17;;;;;;;5.67;1.63;;;18.60;1.00;;;;;;4998538;28;20461;-73
2021/08/07 08:30:43;;;;;;;6.00;2.10;;;18.80;1.00;;;;;;5003600;28;20473;-73
2021/08/07 08:33:10;;;;;;;6.00;2.50;;;18.80;1.00;;;;;;4997167;28;20988;-72
2021/08/07 08:35:36;;;;;;;10.20;2.50;;;18.90;1.00;;;;;;5004070;28;20589;-72
2021/08/07 08:38:02;;;;;;;4.40;1.83;;;18.90;1.00;;;;;;5010415;28;20442;-72
2021/08/07 08:40:28;;;;;;;4.27;1.53;;;18.90;1.00;;;;;;5035588;28;20188;-73
2021/08/07 08:42:56;;;;;;;6.23;1.57;;;19.00;1.00;;;;;;5012953;28;20600;-72
2021/08/07 08:45:22;;;;;;;5.53;2.07;;;19.00;1.00;;;;;;5003893;28;22436;-72
2021/08/07 08:47:48;;;;;;;4.13;2.07;;;19.10;1.00;;;;;;5004315;28;20443;-72
2021/08/07 08:50:16;;;;;;;2.47;1.80;;;18.90;1.00;;;;;;5003459;28;20975;-73
2021/08/07 08:52:44;;;;;;;13.77;2.90;;;18.80;1.00;;;;;;5005925;28;21017;-72
2021/08/07 08:55:11;;;;;;;7.93;2.00;;;18.70;1.00;;;;;;5008181;28;20454;-72
2021/08/07 08:57:38;;;;;;;5.57;2.27;;;18.80;1.00;;;;;;5003981;28;20446;-73
2021/08/07 09:00:07;;;;;;;6.70;2.10;;;18.70;1.00;;;;;;5009541;28;20442;-73
2021/08/07 09:02:35;;;;;;;4.87;2.07;;;18.80;1.00;;;;;;5008309;28;22051;-72
2021/08/07 09:05:05;;;;;;;5.70;2.10;;;18.80;1.00;;;;;;5010219;28;21188;-73
2021/08/07 09:07:30;;;;;;;4.47;1.97;;;18.90;1.00;;;;;;5023411;28;20746;-72
2021/08/07 09:09:56;;;;;;;3.83;1.90;;;19.10;1.00;;;;;;5022161;28;20489;-72
2021/08/07 09:12:51;;;;;;;11.13;3.20;;;19.10;1.00;;;;;;4992311;28;20187;-73
2021/08/07 09:15:30;;;;;;;3.97;1.63;;;19.30;1.00;;;;;;4988594;28;21634;-72
2021/08/07 09:18:14;;;;;;;3.30;1.70;;;19.50;1.00;;;;;;5006891;28;20539;-72
2021/08/07 09:20:48;;;;;;;3.50;1.80;;;19.60;1.00;;;;;;5009223;28;20852;-72
2021/08/07 09:23:16;;;;;;;2.97;1.60;;;19.70;1.00;;;;;;5010221;28;20497;-72
2021/08/07 09:25:45;;;;;;;5.83;1.83;;;19.70;1.00;;;;;;5000575;28;20442;-73
2021/08/07 09:28:11;;;;;;;5.80;1.70;;;19.80;1.00;;;;;;5000670;28;20784;-73
2021/08/07 09:30:39;;;;;;;6.47;1.83;;;19.80;1.00;;;;;;5018265;28;21061;-72
2021/08/07 09:33:19;;;;;;;4.10;2.07;;;19.80;1.00;;;;;;5008191;28;20441;-73
2021/08/07 09:35:45;;;;;;;5.10;1.77;;;20.00;1.00;;;;;;5010319;28;20446;-72
2021/08/07 09:38:22;;;;;;;6.27;2.07;;;20.20;1.00;;;;;;5020917;28;20438;-73
2021/08/07 09:41:05;;;;;;;3.83;1.80;;;20.20;1.00;;;;;;5022249;28;20777;-72
2021/08/07 09:43:48;;;;;;;5.13;1.77;;;20.60;1.00;;;;;;5001795;28;20445;-72
2021/08/07 09:46:21;;;;;;;3.17;1.60;;;20.40;1.00;;;;;;5006561;28;20434;-72
2021/08/07 09:48:54;;;;;;;7.63;1.83;;;20.10;1.00;;;;;;5008864;28;21025;-72
2021/08/07 09:51:23;;;;;;;5.20;2.00;;;19.90;1.00;;;;;;5008692;28;20557;-72
2021/08/07 09:54:12;;;;;;;4.60;1.90;;;19.80;1.00;;;;;;5004134;28;20465;-73
2021/08/07 09:56:57;;;;;;;4.53;1.80;;;19.60;1.00;;;;;;5002417;28;20757;-73
2021/08/07 09:59:33;;;;;;;3.33;1.40;;;19.50;1.00;;;;;;4999913;28;20453;-73
2021/08/07 10:02:17;;;;;;;3.20;1.80;;;19.40;1.00;;;;;;4993579;28;21054;-72
2021/08/07 10:04:43;;;;;;;5.27;1.60;;;19.40;1.00;;;;;;5004219;28;20979;-72
2021/08/07 10:07:12;;;;;;;4.23;1.63;;;19.30;1.00;;;;;;5033571;28;20439;-73
2021/08/07 10:09:56;;;;;;;5.83;2.30;;;19.10;1.00;;;;;;5018454;28;20576;-72
2021/08/07 10:12:22;;;;;;;4.10;1.47;;;19.00;1.00;;;;;;5017239;28;20504;-73
2021/08/07 10:14:53;;;;;;;5.53;2.00;;;18.90;1.00;;;;;;5034932;28;20974;-73
2021/08/07 10:17:23;;;;;;;5.30;1.90;;;18.70;1.00;;;;;;5019556;28;20478;-72
2021/08/07 10:19:51;;;;;;;5.90;2.33;;;18.60;1.00;;;;;;5020849;28;20543;-73
2021/08/07 10:22:19;;;;;;;4.63;2.30;;;18.80;1.00;;;;;;5015254;28;20446;-73
2021/08/07 10:24:50;;;;;;;7.80;2.27;;;19.00;1.00;;;;;;5017256;28;20511;-73
2021/08/07 10:27:19;;;;;;;6.57;2.07;;;19.20;1.00;;;;;;5021484;28;20566;-73
2021/08/07 10:29:50;;;;;;;7.20;1.90;;;19.40;1.00;;;;;;5012690;28;20577;-73
2021/08/07 10:32:16;;;;;;;3.00;1.83;;;19.40;1.00;;;;;;5019334;28;20434;-72
2021/08/07 10:34:46;;;;;;;4.17;2.00;;;19.80;1.00;;;;;;5016857;28;20442;-73
2021/08/07 10:37:13;;;;;;;3.07;1.80;;;20.10;1.00;;;;;;5016531;28;20974;-72
2021/08/07 10:39:39;;;;;;;6.20;1.83;;;20.50;1.00;;;;;;5028994;28;21274;-73
2021/08/07 10:42:07;;;;;;;3.87;1.80;;;20.90;1.00;;;;;;5033633;28;20450;-73
2021/08/07 10:44:34;;;;;;;4.40;2.30;;;21.20;1.00;;;;;;5030233;28;20279;-73
2021/08/07 10:47:00;;;;;;;2.53;1.53;;;21.40;1.00;;;;;;5013986;28;20481;-73
2021/08/07 10:49:37;;;;;;;6.63;1.87;;;21.30;1.00;;;;;;5014584;28;20926;-73
2021/08/07 10:52:22;;;;;;;4.23;1.80;;;21.00;1.00;;;;;;5018177;28;20485;-73
2021/08/07 10:54:55;;;;;;;5.37;2.00;;;20.90;1.00;;;;;;5016893;28;20869;-73
2021/08/07 10:57:39;;;;;;;3.77;1.30;;;20.80;1.00;;;;;;5010409;28;20589;-74
2021/08/07 11:00:18;;;;;;;5.40;1.57;;;20.70;1.00;;;;;;5017506;28;20853;-73
2021/08/07 11:02:46;;;;;;;3.83;1.37;;;21.20;1.00;;;;;;5017648;28;20446;-73
2021/08/07 11:05:11;;;;;;;2.80;1.27;;;21.70;1.00;;;;;;5009919;28;20449;-74
2021/08/07 11:07:37;;;;;;;3.87;1.30;;;21.90;1.00;;;;;;5014263;28;20520;-73
2021/08/07 11:10:15;;;;;;;3.63;1.20;;;22.00;1.00;;;;;;5014793;28;20227;-74
2021/08/07 11:12:44;;;;;;;3.60;1.20;;;22.10;1.00;;;;;;5016634;28;20199;-75
2021/08/07 11:15:28;;;;;;;3.30;1.27;;;22.10;1.00;;;;;;5012338;28;20529;-74
2021/08/07 11:17:54;;;;;;;3.93;1.43;;;21.90;1.00;;;;;;5024201;28;20868;-74
2021/08/07 11:20:42;;;;;;;4.40;1.53;;;22.10;1.00;;;;;;5022068;28;20472;-74
2021/08/07 11:23:09;;;;;;;5.10;1.47;;;22.40;1.00;;;;;;5006431;28;20191;-72
2021/08/07 11:25:53;;;;;;;3.83;1.57;;;22.30;1.00;;;;;;5013132;28;21017;-73
2021/08/07 11:28:19;;;;;;;3.40;1.20;;;21.90;1.00;;;;;;5014412;28;20473;-73
2021/08/07 11:30:45;;;;;;;4.10;1.10;;;21.60;1.00;;;;;;5009688;28;20541;-73
2021/08/07 11:33:13;;;;;;;5.00;1.23;;;21.30;1.00;;;;;;5000515;28;20656;-73
2021/08/07 11:35:41;;;;;;;2.97;1.13;;;21.10;1.00;;;;;;5008803;28;20777;-73
2021/08/07 11:38:08;;;;;;;2.90;1.30;;;21.00;1.00;;;;;;5019324;28;20214;-73
2021/08/07 11:40:46;;;;;;;3.70;1.30;;;20.80;1.00;;;;;;5000570;28;20473;-73
2021/08/07 11:43:23;;;;;;;1.90;1.00;;;20.60;1.00;;;;;;4983269;28;20442;-73
2021/08/07 11:46:02;;;;;;;6.10;1.00;;;20.40;1.00;;;;;;5001463;28;20446;-73
2021/08/07 11:48:33;;;;;;;6.00;1.00;;;20.30;1.00;;;;;;5005629;28;20481;-73
2021/08/07 11:51:04;;;;;;;3.10;1.13;;;20.20;1.00;;;;;;5007363;28;20532;-74
2021/08/07 11:53:31;;;;;;;4.07;1.17;;;20.10;1.00;;;;;;5003270;28;20438;-72
2021/08/07 11:56:07;;;;;;;2.50;1.40;;;20.00;1.00;;;;;;5009957;28;20456;-73
2021/08/07 11:58:54;;;;;;;2.63;0.83;;;20.00;1.00;;;;;;5007506;28;20442;-72
2021/08/07 12:01:21;;;;;;;5.20;1.20;;;20.00;1.00;;;;;;5007757;28;20804;-73
2021/08/07 12:03:52;;;;;;;2.40;1.37;;;20.00;1.00;;;;;;5005458;28;20449;-73
2021/08/07 12:06:29;;;;;;;4.73;1.30;;;20.00;1.00;;;;;;5003565;28;20535;-73
2021/08/07 12:08:55;;;;;;;4.70;1.50;;;19.80;1.00;;;;;;5011993;28;20466;-73
2021/08/07 12:11:21;;;;;;;6.60;2.33;;;19.80;1.00;;;;;;5009292;28;20477;-73
2021/08/07 12:13:46;;;;;;;3.63;1.50;;;19.80;1.00;;;;;;5004775;28;20274;-73
2021/08/07 12:16:18;;;;;;;6.50;2.17;;;19.70;1.00;;;;;;5012258;28;20452;-73
2021/08/07 12:18:44;;;;;;;3.10;1.53;;;19.50;1.00;;;;;;5011492;28;20638;-73
2021/08/07 12:21:24;;;;;;;2.83;1.40;;;19.30;1.00;;;;;;5009376;28;20878;-75
2021/08/07 12:23:53;;;;;;;6.50;2.03;;;19.10;1.00;;;;;;5009070;28;20250;-73
2021/08/07 12:26:20;;;;;;;4.00;1.43;;;19.10;1.00;;;;;;5006980;28;20562;-73
2021/08/07 12:28:46;;;;;;;3.77;1.40;;;19.20;1.00;;;;;;5006849;28;20500;-73
2021/08/07 12:31:12;;;;;;;2.60;1.30;;;19.30;1.00;;;;;;5007205;28;20470;-73
2021/08/07 12:33:41;;;;;;;5.80;1.63;;;19.40;1.00;;;;;;5008942;28;20823;-73
2021/08/07 12:36:14;;;;;;;3.00;1.60;;;19.80;1.00;;;;;;5011133;28;20196;-73
2021/08/07 12:38:51;;;;;;;3.53;0.93;;;20.40;1.00;;;;;;5011147;28;20443;-72
2021/08/07 12:41:21;;;;;;;1.57;0.93;;;20.70;1.00;;;;;;5013067;28;20822;-73
2021/08/07 12:43:48;;;;;;;3.70;1.13;;;20.80;1.00;;;;;;5009657;28;20938;-73
2021/08/07 12:46:18;;;;;;;4.30;1.00;;;21.10;1.00;;;;;;5006989;28;20599;-72
2021/08/07 12:48:49;;;;;;;1.70;0.90;;;21.20;1.00;;;;;;5011472;28;20455;-73
2021/08/07 12:51:21;;;;;;;3.17;1.20;;;21.50;1.00;;;;;;5012051;28;20489;-73
2021/08/07 12:53:48;;;;;;;3.47;0.93;;;21.70;1.00;;;;;;5007213;28;20446;-73
2021/08/07 12:56:15;;;;;;;3.23;1.00;;;21.70;1.00;;;;;;5010544;28;20569;-73
2021/08/07 12:59:02;;;;;;;1.57;0.70;;;22.00;1.00;;;;;;5007777;28;20776;-73
2021/08/07 13:01:29;;;;;;;1.90;1.00;;;22.30;1.00;;;;;;5011684;28;20862;-71
2021/08/07 13:03:58;;;;;;;3.30;0.73;;;22.20;1.00;;;;;;5014796;28;21289;-71
2021/08/07 13:06:27;;;;;;;2.90;1.00;;;22.30;1.00;;;;;;5016455;28;20453;-71
2021/08/07 13:08:54;;;;;;;2.07;1.03;;;22.40;1.00;;;;;;5012248;28;20462;-71